createdAt,value
2023-04-10T00:00:33.029Z,8.00
2023-04-10T00:04:39.045Z,7.94
2023-04-10T00:08:39.007Z,7.84
2023-04-10T00:12:38.032Z,7.79
2023-04-10T00:16:36.065Z,7.75
2023-04-10T00:20:34.010Z,7.77
2023-04-10T00:24:32.059Z,7.82
2023-04-10T00:28:29.967Z,7.80
2023-04-10T00:32:27.937Z,7.76
2023-04-10T00:36:26.086Z,7.71
2023-04-10T00:40:23.920Z,7.64
2023-04-10T00:44:21.936Z,7.57
2023-04-10T00:48:19.916Z,7.48
2023-04-10T00:52:18.004Z,7.37
2023-04-10T00:56:16.897Z,7.28
2023-04-10T01:00:14.977Z,7.21
2023-04-10T01:04:13.174Z,7.17
2023-04-10T01:08:40.947Z,7.12
2023-04-10T01:12:56.941Z,7.07
2023-04-10T01:17:15.918Z,7.06
2023-04-10T01:21:16.877Z,7.05
2023-04-10T01:25:44.949Z,7.05
2023-04-10T01:29:44.873Z,7.04
2023-04-10T01:33:53.184Z,6.98
2023-04-10T01:37:54.964Z,6.93
2023-04-10T01:41:55.870Z,6.87
2023-04-10T01:46:13.884Z,6.81
2023-04-10T01:50:12.923Z,6.76
2023-04-10T01:54:10.849Z,6.78
2023-04-10T01:58:08.889Z,6.77
2023-04-10T02:02:13.874Z,6.76
2023-04-10T02:06:28.857Z,6.74
2023-04-10T02:10:46.810Z,6.73
2023-04-10T02:14:46.839Z,6.71
2023-04-10T02:18:47.802Z,6.68
2023-04-10T02:22:45.844Z,6.64
2023-04-10T02:26:43.828Z,6.60
2023-04-10T02:30:41.863Z,6.56
2023-04-10T02:34:39.735Z,6.53
2023-04-10T02:38:37.856Z,6.48
2023-04-10T02:42:35.747Z,6.42
2023-04-10T02:46:33.871Z,6.35
2023-04-10T02:50:31.790Z,6.31
2023-04-10T02:54:29.791Z,6.30
2023-04-10T02:58:28.787Z,6.31
2023-04-10T03:02:27.057Z,6.31
2023-04-10T03:06:29.724Z,6.32
2023-04-10T03:10:27.849Z,6.32
2023-04-10T03:14:25.809Z,6.32
2023-04-10T03:18:23.740Z,6.33
2023-04-10T03:22:21.767Z,6.35
2023-04-10T03:26:20.771Z,6.35
2023-04-10T03:30:18.747Z,6.35
2023-04-10T03:34:16.829Z,6.36
2023-04-10T03:38:14.812Z,6.35
2023-04-10T03:42:12.723Z,6.35
2023-04-10T03:46:10.697Z,6.34
2023-04-10T03:50:08.744Z,6.35
2023-04-10T03:54:11.750Z,6.33
2023-04-10T03:58:09.732Z,6.32
2023-04-10T04:02:07.908Z,6.32
2023-04-10T04:06:06.678Z,6.35
2023-04-10T04:10:21.761Z,6.40
2023-04-10T04:14:45.676Z,6.50
2023-04-10T04:19:02.618Z,6.58
2023-04-10T04:23:08.677Z,6.62
2023-04-10T04:27:29.654Z,6.66
2023-04-10T04:31:45.670Z,6.71
2023-04-10T04:36:01.624Z,6.76
2023-04-10T04:40:10.660Z,6.76
2023-04-10T04:44:24.580Z,6.78
2023-04-10T04:48:44.641Z,6.80
2023-04-10T04:53:06.077Z,6.77
2023-04-10T04:57:24.664Z,6.74
2023-04-10T05:01:45.725Z,6.70
2023-04-10T05:06:07.578Z,6.74
2023-04-10T05:10:34.565Z,6.85
2023-04-10T05:14:44.605Z,6.98
2023-04-10T05:18:51.681Z,7.02
2023-04-10T05:23:09.581Z,7.07
2023-04-10T05:27:32.531Z,7.12
2023-04-10T05:31:55.549Z,7.22
2023-04-10T05:36:11.596Z,7.33
2023-04-10T05:40:20.641Z,7.54
2023-04-10T05:44:36.552Z,7.76
2023-04-10T05:48:50.539Z,7.93
2023-04-10T05:53:07.622Z,8.14
2023-04-10T05:57:21.559Z,8.46
2023-04-10T06:01:09.059Z,8.82
2023-04-10T06:04:39.513Z,9.11
2023-04-10T06:08:03.686Z,9.39
2023-04-10T06:11:27.719Z,9.66
2023-04-10T06:14:52.612Z,9.93
2023-04-10T06:18:20.860Z,10.21
2023-04-10T06:21:45.523Z,10.49
2023-04-10T06:25:09.962Z,10.55
2023-04-10T06:28:33.991Z,10.53
2023-04-10T06:31:58.920Z,10.50
2023-04-10T06:35:25.052Z,10.44
2023-04-10T06:38:48.968Z,10.46
2023-04-10T06:42:12.858Z,10.50
2023-04-10T06:45:51.032Z,10.57
2023-04-10T06:49:15.154Z,10.64
2023-04-10T06:52:39.157Z,10.73
2023-04-10T06:56:03.771Z,10.77
2023-04-10T06:59:27.828Z,10.84
2023-04-10T07:02:51.646Z,10.83
2023-04-10T07:06:15.703Z,10.86
2023-04-10T07:09:39.469Z,10.91
2023-04-10T07:13:03.286Z,10.98
2023-04-10T07:16:29.528Z,11.03
2023-04-10T07:19:53.571Z,11.07
2023-04-10T07:23:17.472Z,11.17
2023-04-10T07:26:43.525Z,11.29
2023-04-10T07:30:08.022Z,11.45
2023-04-10T07:33:31.867Z,11.49
2023-04-10T07:36:55.673Z,11.55
2023-04-10T07:40:19.620Z,11.53
2023-04-10T07:43:43.497Z,11.60
2023-04-10T07:47:07.313Z,11.68
2023-04-10T07:50:31.580Z,11.74
2023-04-10T07:53:55.938Z,11.73
2023-04-10T07:57:19.683Z,11.72
2023-04-10T08:00:43.868Z,11.72
2023-04-10T08:04:07.781Z,11.82
2023-04-10T08:07:31.662Z,11.99
2023-04-10T08:10:55.576Z,12.05
2023-04-10T08:14:19.459Z,12.06
2023-04-10T08:17:43.301Z,12.08
2023-04-10T08:21:07.947Z,12.25
2023-04-10T08:24:31.783Z,12.42
2023-04-10T08:27:55.616Z,12.53
2023-04-10T08:31:20.831Z,12.52
2023-04-10T08:34:44.686Z,12.50
2023-04-10T08:38:14.157Z,12.59
2023-04-10T08:41:38.563Z,12.82
2023-04-10T08:45:02.407Z,13.02
2023-04-10T08:48:32.883Z,13.17
2023-04-10T08:52:21.322Z,13.34
2023-04-10T08:56:21.340Z,13.44
2023-04-10T09:00:23.402Z,13.48
2023-04-10T09:04:21.466Z,13.53
2023-04-10T09:08:21.321Z,13.75
2023-04-10T09:12:19.316Z,14.03
2023-04-10T09:16:17.322Z,14.35
2023-04-10T09:20:15.458Z,14.65
2023-04-10T09:24:16.304Z,14.88
2023-04-10T09:28:24.374Z,14.98
2023-04-10T09:32:22.326Z,14.88
2023-04-10T09:36:27.327Z,14.94
2023-04-10T09:40:39.353Z,15.02
2023-04-10T09:44:45.348Z,14.93
2023-04-10T09:48:43.284Z,14.81
2023-04-10T09:52:50.284Z,14.86
2023-04-10T09:56:52.316Z,14.89
2023-04-10T10:01:01.274Z,14.91
2023-04-10T10:05:00.336Z,14.96
2023-04-10T10:08:59.246Z,14.97
2023-04-10T10:13:09.238Z,14.98
2023-04-10T10:17:13.236Z,14.94
2023-04-10T10:21:11.247Z,14.89
2023-04-10T10:25:11.223Z,15.04
2023-04-10T10:29:11.277Z,15.16
2023-04-10T10:33:09.313Z,15.24
2023-04-10T10:37:07.200Z,15.37
2023-04-10T10:41:27.232Z,15.56
2023-04-10T10:45:32.432Z,15.73
2023-04-10T10:49:30.310Z,15.71
2023-04-10T10:53:47.187Z,15.97
2023-04-10T10:58:09.408Z,16.14
2023-04-10T11:02:27.349Z,16.27
2023-04-10T11:06:27.192Z,16.39
2023-04-10T11:10:25.232Z,16.47
2023-04-10T11:14:24.221Z,16.55
2023-04-10T11:18:22.200Z,16.65
2023-04-10T11:22:22.191Z,16.60
2023-04-10T11:26:20.154Z,16.65
2023-04-10T11:30:18.187Z,16.60
2023-04-10T11:34:23.169Z,16.69
2023-04-10T11:38:29.275Z,17.12
2023-04-10T11:42:27.132Z,17.33
2023-04-10T11:46:25.298Z,17.19
2023-04-10T11:50:25.168Z,17.30
2023-04-10T11:54:28.226Z,17.47
2023-04-10T11:58:43.167Z,17.68
2023-04-10T12:02:41.241Z,17.66
2023-04-10T12:06:39.102Z,17.50
2023-04-10T12:10:37.170Z,17.55
2023-04-10T12:14:37.100Z,18.01
2023-04-10T12:18:37.238Z,18.34
2023-04-10T12:22:36.113Z,18.33
2023-04-10T12:26:34.218Z,18.19
2023-04-10T12:30:32.094Z,17.86
2023-04-10T12:34:33.141Z,17.67
2023-04-10T12:38:31.128Z,17.54
2023-04-10T12:42:31.154Z,17.53
2023-04-10T12:46:39.179Z,17.71
2023-04-10T12:50:37.149Z,17.64
2023-04-10T12:54:43.072Z,17.15
2023-04-10T12:58:42.170Z,16.57
2023-04-10T13:02:42.280Z,15.68
2023-04-10T13:06:40.054Z,14.83
2023-04-10T13:10:38.138Z,14.50
2023-04-10T13:14:36.105Z,14.46
2023-04-10T13:18:34.074Z,14.52
2023-04-10T13:22:32.087Z,14.65
2023-04-10T13:26:30.022Z,14.97
2023-04-10T13:30:28.046Z,15.39
2023-04-10T13:34:26.180Z,15.74
2023-04-10T13:38:24.160Z,15.96
2023-04-10T13:42:22.149Z,16.24
2023-04-10T13:46:21.159Z,16.21
2023-04-10T13:50:19.118Z,15.99
2023-04-10T13:54:18.059Z,15.78
2023-04-10T13:58:16.014Z,15.63
2023-04-10T14:02:14.365Z,15.46
2023-04-10T14:06:12.056Z,15.10
2023-04-10T14:10:10.013Z,14.92
2023-04-10T14:14:08.023Z,14.87
2023-04-10T14:18:06.102Z,14.65
2023-04-10T14:22:04.084Z,14.33
2023-04-10T14:26:04.108Z,14.05
2023-04-10T14:30:01.963Z,13.83
2023-04-10T14:34:00.009Z,13.63
2023-04-10T14:37:57.941Z,13.51
2023-04-10T14:41:56.014Z,13.67
2023-04-10T14:45:53.958Z,13.88
2023-04-10T14:49:52.082Z,13.94
2023-04-10T14:53:50.090Z,13.97
2023-04-10T14:57:48.018Z,14.11
2023-04-10T15:01:46.086Z,14.36
2023-04-10T15:05:44.047Z,14.36
2023-04-10T15:09:41.937Z,14.13
2023-04-10T15:13:40.057Z,13.84
2023-04-10T15:17:37.975Z,13.78
2023-04-10T15:21:36.263Z,13.95
2023-04-10T15:25:33.932Z,13.98
2023-04-10T15:29:32.987Z,14.14
2023-04-10T15:33:33.130Z,14.36
2023-04-10T15:37:31.895Z,14.50
2023-04-10T15:41:29.904Z,14.43
2023-04-10T15:45:27.941Z,14.23
2023-04-10T15:49:36.232Z,14.00
2023-04-10T15:53:34.941Z,13.68
2023-04-10T15:57:32.850Z,13.35
2023-04-10T16:01:30.936Z,13.09
2023-04-10T16:05:29.867Z,12.89
2023-04-10T16:09:27.959Z,12.79
2023-04-10T16:13:25.908Z,12.75
2023-04-10T16:17:24.938Z,12.73
2023-04-10T16:21:22.823Z,12.74
2023-04-10T16:25:21.829Z,12.70
2023-04-10T16:29:19.851Z,12.67
2023-04-10T16:33:17.904Z,12.66
2023-04-10T16:37:15.862Z,12.66
2023-04-10T16:41:16.826Z,12.66
2023-04-10T16:45:14.831Z,12.70
2023-04-10T16:49:12.834Z,12.77
2023-04-10T16:53:10.820Z,12.87
2023-04-10T16:57:08.901Z,12.91
2023-04-10T17:01:06.810Z,12.90
2023-04-10T17:05:04.825Z,12.87
2023-04-10T17:09:02.792Z,12.81
2023-04-10T17:12:41.132Z,12.74
2023-04-10T17:16:06.364Z,12.66
2023-04-10T17:19:31.796Z,12.57
2023-04-10T17:22:56.082Z,12.50
2023-04-10T17:26:23.338Z,12.42
2023-04-10T17:29:47.635Z,12.33
2023-04-10T17:33:11.525Z,12.26
2023-04-10T17:36:35.695Z,12.19
2023-04-10T17:40:19.768Z,12.14
2023-04-10T17:44:17.741Z,12.06
2023-04-10T17:48:15.851Z,11.99
2023-04-10T17:52:13.780Z,11.91
2023-04-10T17:56:11.824Z,11.82
2023-04-10T18:00:09.733Z,11.74
2023-04-10T18:04:09.789Z,11.67
2023-04-10T18:08:09.793Z,11.60
2023-04-10T18:12:07.763Z,11.51
2023-04-10T18:16:05.842Z,11.42
2023-04-10T18:20:04.787Z,11.35
2023-04-10T18:24:02.737Z,11.27
2023-04-10T18:32:01.801Z,11.11
2023-04-10T18:35:59.898Z,10.98
2023-04-10T18:40:03.428Z,10.86
2023-04-10T18:44:05.755Z,10.73
2023-04-10T18:48:04.738Z,10.59
2023-04-10T18:52:03.736Z,10.43
2023-04-10T18:56:08.777Z,10.32
2023-04-10T19:00:08.697Z,10.20
2023-04-10T19:04:06.877Z,10.08
2023-04-10T19:08:05.158Z,9.95
2023-04-10T19:12:03.629Z,9.80
2023-04-10T19:16:02.790Z,9.63
2023-04-10T19:20:01.662Z,9.50
2023-04-10T19:23:59.747Z,9.38
2023-04-10T19:27:58.857Z,9.25
2023-04-10T19:31:56.633Z,9.14
2023-04-10T19:35:54.635Z,9.02
2023-04-10T19:39:52.652Z,8.89
2023-04-10T19:43:50.696Z,8.77
2023-04-10T19:47:48.642Z,8.67
2023-04-10T19:51:46.627Z,8.63
2023-04-10T19:55:44.606Z,8.61
2023-04-10T19:59:44.599Z,8.56
2023-04-10T20:03:43.703Z,8.52
2023-04-10T20:07:41.657Z,8.47
2023-04-10T20:11:40.731Z,8.51
2023-04-10T20:15:38.548Z,8.55
2023-04-10T20:19:36.615Z,8.59
2023-04-10T20:23:34.545Z,8.64
2023-04-10T20:27:33.034Z,8.69
2023-04-10T20:31:32.137Z,8.72
2023-04-10T20:35:31.683Z,8.73
2023-04-10T20:39:31.600Z,8.74
2023-04-10T20:43:29.665Z,8.71
2023-04-10T20:47:29.635Z,8.63
2023-04-10T20:51:27.595Z,8.52
2023-04-10T20:55:25.551Z,8.41
2023-04-10T20:59:23.531Z,8.32
2023-04-10T21:03:21.658Z,8.24
2023-04-10T21:07:19.530Z,8.14
2023-04-10T21:11:17.507Z,8.06
2023-04-10T21:15:15.550Z,7.99
2023-04-10T21:19:13.555Z,7.96
2023-04-10T21:23:11.630Z,7.93
2023-04-10T21:27:09.517Z,7.91
2023-04-10T21:31:07.682Z,7.89
2023-04-10T21:35:05.451Z,7.86
2023-04-10T21:39:03.535Z,7.82
2023-04-10T21:43:01.524Z,7.78
2023-04-10T21:46:59.500Z,7.75
2023-04-10T21:50:59.508Z,7.71
2023-04-10T21:54:59.538Z,7.68
2023-04-10T21:58:59.454Z,7.65
2023-04-10T22:02:57.622Z,7.61
2023-04-10T22:06:48.568Z,7.57
2023-04-10T22:10:46.534Z,7.55
2023-04-10T22:14:44.381Z,7.50
2023-04-10T22:18:42.537Z,7.46
2023-04-10T22:22:40.470Z,7.46
2023-04-10T22:26:39.471Z,7.40
2023-04-10T22:30:37.463Z,7.36
2023-04-10T22:34:35.530Z,7.37
2023-04-10T22:38:33.409Z,7.41
2023-04-10T22:42:32.030Z,7.41
2023-04-10T22:46:30.374Z,7.40
2023-04-10T22:50:28.420Z,7.38
2023-04-10T22:54:28.600Z,7.34
2023-04-10T22:58:26.482Z,7.23
2023-04-10T23:02:24.453Z,7.09
2023-04-10T23:06:22.442Z,6.94
2023-04-10T23:10:21.360Z,6.81
2023-04-10T23:14:19.344Z,6.64
2023-04-10T23:18:18.341Z,6.51
2023-04-10T23:22:16.368Z,6.36
2023-04-10T23:26:15.316Z,6.26
2023-04-10T23:30:13.365Z,6.20
2023-04-10T23:34:11.359Z,6.18
2023-04-10T23:38:09.441Z,6.16
2023-04-10T23:42:07.422Z,6.22
2023-04-10T23:46:05.371Z,6.27
2023-04-10T23:50:03.382Z,6.27
2023-04-10T23:54:01.300Z,6.28
2023-04-10T23:57:59.334Z,6.28
